sensor_id;sensor_type;location;lat;lon;timestamp;pressure;altitude;pressure_sealevel;temperature;humidity
65666;BME280;52365;47.464;18.976;2023-08-31T00:00:25;99083.31;;;17.75;74.48
65666;BME280;52365;47.464;18.976;2023-08-31T00:01:02;99093.44;;;17.94;73.50
65666;BME280;52365;47.464;18.976;2023-08-31T00:01:41;99091.31;;;17.86;73.60
65666;BME280;52365;47.464;18.976;2023-08-31T00:02:17;99097.00;;;17.89;73.35
65666;BME280;52365;47.464;18.976;2023-08-31T00:02:54;99094.22;;;17.75;73.63
65666;BME280;52365;47.464;18.976;2023-08-31T00:03:31;99101.09;;;17.95;73.32
65666;BME280;52365;47.464;18.976;2023-08-31T00:04:07;99098.72;;;18.05;72.91
65666;BME280;52365;47.464;18.976;2023-08-31T00:04:53;99095.97;;;17.92;72.88
65666;BME280;52365;47.464;18.976;2023-08-31T00:05:32;99107.66;;;17.86;73.39
65666;BME280;52365;47.464;18.976;2023-08-31T00:06:08;99102.47;;;18.02;73.13
65666;BME280;52365;47.464;18.976;2023-08-31T00:06:44;99102.47;;;18.02;72.72
65666;BME280;52365;47.464;18.976;2023-08-31T00:07:22;99096.63;;;18.11;72.44
65666;BME280;52365;47.464;18.976;2023-08-31T00:07:58;99098.38;;;18.08;72.32
65666;BME280;52365;47.464;18.976;2023-08-31T00:08:34;99099.75;;;18.02;72.17
65666;BME280;52365;47.464;18.976;2023-08-31T00:09:11;99104.81;;;18.11;72.50
65666;BME280;52365;47.464;18.976;2023-08-31T00:09:47;99091.66;;;17.96;72.46
65666;BME280;52365;47.464;18.976;2023-08-31T00:10:23;99098.47;;;17.90;73.04
65666;BME280;52365;47.464;18.976;2023-08-31T00:11:00;99107.22;;;18.15;72.75
65666;BME280;52365;47.464;18.976;2023-08-31T00:11:37;99095.72;;;17.90;72.83
65666;BME280;52365;47.464;18.976;2023-08-31T00:12:13;99098.00;;;18.04;72.88
65666;BME280;52365;47.464;18.976;2023-08-31T00:12:49;99089.69;;;17.97;73.16
65666;BME280;52365;47.464;18.976;2023-08-31T00:13:26;99103.03;;;17.81;73.35
65666;BME280;52365;47.464;18.976;2023-08-31T00:14:03;99086.25;;;17.77;73.79
65666;BME280;52365;47.464;18.976;2023-08-31T00:14:39;99092.84;;;18.01;73.45
65666;BME280;52365;47.464;18.976;2023-08-31T00:15:15;99097.91;;;18.23;72.60
65666;BME280;52365;47.464;18.976;2023-08-31T00:15:54;99087.84;;;18.31;71.87
65666;BME280;52365;47.464;18.976;2023-08-31T00:16:31;99090.59;;;18.31;71.60
65666;BME280;52365;47.464;18.976;2023-08-31T00:17:09;99091.81;;;18.30;71.67
65666;BME280;52365;47.464;18.976;2023-08-31T00:17:45;99092.69;;;18.38;71.19
65666;BME280;52365;47.464;18.976;2023-08-31T00:18:21;99090.66;;;18.26;71.36
65666;BME280;52365;47.464;18.976;2023-08-31T00:18:57;99087.22;;;18.38;71.35
65666;BME280;52365;47.464;18.976;2023-08-31T00:19:33;99094.91;;;18.53;70.88
65666;BME280;52365;47.464;18.976;2023-08-31T00:20:09;99093.75;;;18.62;70.30
65666;BME280;52365;47.464;18.976;2023-08-31T00:20:48;99094.25;;;18.34;70.72
65666;BME280;52365;47.464;18.976;2023-08-31T00:21:24;99092.47;;;18.23;71.31
65666;BME280;52365;47.464;18.976;2023-08-31T00:22:01;99091.09;;;18.30;71.36
65666;BME280;52365;47.464;18.976;2023-08-31T00:22:37;99091.00;;;18.22;71.35
65666;BME280;52365;47.464;18.976;2023-08-31T00:23:13;99088.34;;;18.17;72.03
65666;BME280;52365;47.464;18.976;2023-08-31T00:23:49;99093.06;;;18.16;71.73
65666;BME280;52365;47.464;18.976;2023-08-31T00:24:25;99097.19;;;18.23;71.67
65666;BME280;52365;47.464;18.976;2023-08-31T00:25:07;99089.72;;;18.10;72.16
65666;BME280;52365;47.464;18.976;2023-08-31T00:25:44;99095.50;;;18.20;71.94
65666;BME280;52365;47.464;18.976;2023-08-31T00:26:20;99091.09;;;18.30;71.54
65666;BME280;52365;47.464;18.976;2023-08-31T00:26:57;99083.12;;;18.32;71.45
65666;BME280;52365;47.464;18.976;2023-08-31T00:27:33;99080.53;;;18.40;71.23
65666;BME280;52365;47.464;18.976;2023-08-31T00:28:09;99085.97;;;18.40;71.12
65666;BME280;52365;47.464;18.976;2023-08-31T00:28:45;99080.53;;;18.40;71.14
65666;BME280;52365;47.464;18.976;2023-08-31T00:29:21;99086.81;;;18.48;70.85
65666;BME280;52365;47.464;18.976;2023-08-31T00:29:59;99086.06;;;18.34;71.19
65666;BME280;52365;47.464;18.976;2023-08-31T00:30:35;99085.56;;;18.35;71.30
65666;BME280;52365;47.464;18.976;2023-08-31T00:31:11;99094.97;;;18.21;71.45
65666;BME280;52365;47.464;18.976;2023-08-31T00:31:47;99090.56;;;18.18;71.63
65666;BME280;52365;47.464;18.976;2023-08-31T00:32:27;99096.22;;;18.20;71.86
65666;BME280;52365;47.464;18.976;2023-08-31T00:33:03;99098.66;;;18.24;71.92
65666;BME280;52365;47.464;18.976;2023-08-31T00:33:40;99099.06;;;18.28;71.56
65666;BME280;52365;47.464;18.976;2023-08-31T00:34:16;99088.34;;;18.30;71.52
65666;BME280;52365;47.464;18.976;2023-08-31T00:34:53;99099.84;;;17.96;72.10
65666;BME280;52365;47.464;18.976;2023-08-31T00:35:29;99091.88;;;17.98;72.44
65666;BME280;52365;47.464;18.976;2023-08-31T00:36:05;99096.59;;;17.98;72.79
65666;BME280;52365;47.464;18.976;2023-08-31T00:36:41;99092.41;;;17.97;72.84
65666;BME280;52365;47.464;18.976;2023-08-31T00:37:17;99094.44;;;18.09;72.58
65666;BME280;52365;47.464;18.976;2023-08-31T00:37:55;99096.63;;;18.11;72.34
65666;BME280;52365;47.464;18.976;2023-08-31T00:38:34;99093.91;;;18.24;72.16
65666;BME280;52365;47.464;18.976;2023-08-31T00:39:11;99092.88;;;18.14;72.01
65666;BME280;52365;47.464;18.976;2023-08-31T00:39:47;99084.38;;;18.18;72.07
65666;BME280;52365;47.464;18.976;2023-08-31T00:40:27;99093.50;;;18.20;71.84
65666;BME280;52365;47.464;18.976;2023-08-31T00:41:06;99095.19;;;18.23;71.97
65666;BME280;52365;47.464;18.976;2023-08-31T00:41:43;99090.38;;;18.56;70.81
65666;BME280;52365;47.464;18.976;2023-08-31T00:42:21;99087.34;;;18.59;70.24
65666;BME280;52365;47.464;18.976;2023-08-31T00:42:59;99093.97;;;18.77;69.39
65666;BME280;52365;47.464;18.976;2023-08-31T00:43:35;99101.41;;;18.50;69.65
65666;BME280;52365;47.464;18.976;2023-08-31T00:44:11;99097.31;;;18.57;69.67
65666;BME280;52365;47.464;18.976;2023-08-31T00:44:47;99092.72;;;18.78;69.12
65666;BME280;52365;47.464;18.976;2023-08-31T00:45:24;99092.25;;;18.61;69.00
65666;BME280;52365;47.464;18.976;2023-08-31T00:46:00;99091.03;;;18.49;69.46
65666;BME280;52365;47.464;18.976;2023-08-31T00:46:36;99092.59;;;18.57;69.65
65666;BME280;52365;47.464;18.976;2023-08-31T00:47:13;99088.09;;;18.73;68.78
65666;BME280;52365;47.464;18.976;2023-08-31T00:47:50;99085.16;;;18.71;68.84
65666;BME280;52365;47.464;18.976;2023-08-31T00:48:26;99094.47;;;18.62;68.98
65666;BME280;52365;47.464;18.976;2023-08-31T00:49:02;99087.66;;;18.56;69.23
65666;BME280;52365;47.464;18.976;2023-08-31T00:49:40;99092.22;;;18.21;70.22
65666;BME280;52365;47.464;18.976;2023-08-31T00:50:16;99082.72;;;17.63;72.06
65666;BME280;52365;47.464;18.976;2023-08-31T00:50:53;99082.41;;;17.86;72.33
65666;BME280;52365;47.464;18.976;2023-08-31T00:51:29;99086.16;;;18.15;71.70
65666;BME280;52365;47.464;18.976;2023-08-31T00:52:06;99088.91;;;18.28;71.01
65666;BME280;52365;47.464;18.976;2023-08-31T00:52:42;99088.47;;;18.37;70.63
65666;BME280;52365;47.464;18.976;2023-08-31T00:53:21;99087.97;;;18.66;69.73
65666;BME280;52365;47.464;18.976;2023-08-31T00:53:58;99095.34;;;18.71;69.46
65666;BME280;52365;47.464;18.976;2023-08-31T00:54:35;99084.69;;;19.96;66.25
65666;BME280;52365;47.464;18.976;2023-08-31T00:55:11;99084.94;;;20.27;63.01
65666;BME280;52365;47.464;18.976;2023-08-31T00:55:48;99090.62;;;20.08;63.68
65666;BME280;52365;47.464;18.976;2023-08-31T00:56:24;99093.19;;;19.85;63.21
65666;BME280;52365;47.464;18.976;2023-08-31T00:57:02;99096.78;;;19.46;64.61
65666;BME280;52365;47.464;18.976;2023-08-31T00:57:39;99099.06;;;19.21;65.54
65666;BME280;52365;47.464;18.976;2023-08-31T00:58:16;99103.56;;;19.18;65.87
65666;BME280;52365;47.464;18.976;2023-08-31T00:58:52;99097.75;;;19.01;66.24
65666;BME280;52365;47.464;18.976;2023-08-31T00:59:30;99096.47;;;19.02;66.28
65666;BME280;52365;47.464;18.976;2023-08-31T01:00:06;99105.00;;;18.72;67.38
65666;BME280;52365;47.464;18.976;2023-08-31T01:00:58;99101.75;;;18.73;67.26
65666;BME280;52365;47.464;18.976;2023-08-31T01:01:49;99099.25;;;18.75;67.56
65666;BME280;52365;47.464;18.976;2023-08-31T01:02:30;99099.63;;;18.66;67.16
65666;BME280;52365;47.464;18.976;2023-08-31T01:03:33;99100.84;;;18.25;68.83
65666;BME280;52365;47.464;18.976;2023-08-31T01:04:18;99103.38;;;18.36;69.28
65666;BME280;52365;47.464;18.976;2023-08-31T01:06:09;99098.56;;;18.56;68.29
65666;BME280;52365;47.464;18.976;2023-08-31T01:07:43;99100.22;;;18.32;68.72
65666;BME280;52365;47.464;18.976;2023-08-31T01:09:30;99096.25;;;20.02;64.37
65666;BME280;52365;47.464;18.976;2023-08-31T01:11:59;99113.78;;;19.65;63.95
65666;BME280;52365;47.464;18.976;2023-08-31T01:12:44;99109.78;;;18.39;67.67
65666;BME280;52365;47.464;18.976;2023-08-31T01:13:24;99107.78;;;17.62;70.56
65666;BME280;52365;47.464;18.976;2023-08-31T01:14:03;99107.72;;;17.49;72.30
65666;BME280;52365;47.464;18.976;2023-08-31T01:14:55;99110.88;;;18.89;69.34
65666;BME280;52365;47.464;18.976;2023-08-31T01:15:35;99116.50;;;19.65;65.64
65666;BME280;52365;47.464;18.976;2023-08-31T01:16:12;99110.00;;;19.55;64.62
65666;BME280;52365;47.464;18.976;2023-08-31T01:16:49;99115.66;;;19.57;65.49
65666;BME280;52365;47.464;18.976;2023-08-31T01:17:28;99112.84;;;19.62;64.60
65666;BME280;52365;47.464;18.976;2023-08-31T01:18:06;99112.38;;;20.13;63.37
65666;BME280;52365;47.464;18.976;2023-08-31T01:18:46;99104.69;;;20.33;62.28
65666;BME280;52365;47.464;18.976;2023-08-31T01:19:45;99108.25;;;20.20;62.17
65666;BME280;52365;47.464;18.976;2023-08-31T01:20:34;99113.12;;;19.93;62.63
65666;BME280;52365;47.464;18.976;2023-08-31T01:21:25;99111.09;;;20.15;62.13
65666;BME280;52365;47.464;18.976;2023-08-31T01:22:05;99103.91;;;20.25;61.79
65666;BME280;52365;47.464;18.976;2023-08-31T01:22:48;99116.66;;;18.85;64.70
65666;BME280;52365;47.464;18.976;2023-08-31T01:23:44;99113.41;;;18.15;67.99
65666;BME280;52365;47.464;18.976;2023-08-31T01:24:22;99114.41;;;17.48;70.91
65666;BME280;52365;47.464;18.976;2023-08-31T01:24:59;99118.78;;;16.94;74.23
65666;BME280;52365;47.464;18.976;2023-08-31T01:25:39;99120.75;;;17.18;74.11
65666;BME280;52365;47.464;18.976;2023-08-31T01:26:22;99116.00;;;17.00;74.54
65666;BME280;52365;47.464;18.976;2023-08-31T01:26:58;99117.28;;;17.36;73.85
65666;BME280;52365;47.464;18.976;2023-08-31T01:27:35;99124.84;;;17.06;74.09
65666;BME280;52365;47.464;18.976;2023-08-31T01:28:12;99129.03;;;17.07;74.34
65666;BME280;52365;47.464;18.976;2023-08-31T01:28:49;99121.47;;;16.75;75.40
65666;BME280;52365;47.464;18.976;2023-08-31T01:29:25;99127.03;;;18.02;73.69
65666;BME280;52365;47.464;18.976;2023-08-31T01:30:02;99128.97;;;18.33;70.18
65666;BME280;52365;47.464;18.976;2023-08-31T01:30:39;99133.69;;;18.33;70.60
65666;BME280;52365;47.464;18.976;2023-08-31T01:31:16;99134.56;;;19.21;67.45
65666;BME280;52365;47.464;18.976;2023-08-31T01:31:53;99134.59;;;19.55;65.85
65666;BME280;52365;47.464;18.976;2023-08-31T01:32:29;99133.59;;;19.79;64.37
65666;BME280;52365;47.464;18.976;2023-08-31T01:33:05;99132.44;;;19.74;64.30
65666;BME280;52365;47.464;18.976;2023-08-31T01:33:41;99139.66;;;20.06;63.19
65666;BME280;52365;47.464;18.976;2023-08-31T01:34:17;99128.72;;;20.27;62.32
65666;BME280;52365;47.464;18.976;2023-08-31T01:34:53;99133.91;;;20.38;61.83
65666;BME280;52365;47.464;18.976;2023-08-31T01:35:35;99126.44;;;20.38;61.47
65666;BME280;52365;47.464;18.976;2023-08-31T01:37:07;99127.91;;;20.19;62.13
65666;BME280;52365;47.464;18.976;2023-08-31T01:37:54;99125.03;;;19.61;63.29
65666;BME280;52365;47.464;18.976;2023-08-31T01:38:32;99130.66;;;19.29;64.93
65666;BME280;52365;47.464;18.976;2023-08-31T01:39:35;99130.56;;;19.22;65.62
65666;BME280;52365;47.464;18.976;2023-08-31T01:40:38;99122.75;;;19.39;65.26
65666;BME280;52365;47.464;18.976;2023-08-31T01:41:17;99116.06;;;19.95;63.68
65666;BME280;52365;47.464;18.976;2023-08-31T01:42:00;99112.13;;;20.04;63.06
65666;BME280;52365;47.464;18.976;2023-08-31T01:42:40;99125.47;;;18.92;64.83
65666;BME280;52365;47.464;18.976;2023-08-31T01:43:18;99123.78;;;19.02;66.72
65666;BME280;52365;47.464;18.976;2023-08-31T01:43:55;99116.75;;;19.54;65.36
65666;BME280;52365;47.464;18.976;2023-08-31T01:44:34;99117.06;;;19.84;64.08
65666;BME280;52365;47.464;18.976;2023-08-31T01:45:14;99116.56;;;20.15;62.77
65666;BME280;52365;47.464;18.976;2023-08-31T01:45:51;99124.50;;;20.26;62.41
65666;BME280;52365;47.464;18.976;2023-08-31T01:46:28;99118.97;;;19.97;62.64
65666;BME280;52365;47.464;18.976;2023-08-31T01:47:06;99115.34;;;20.23;62.21
65666;BME280;52365;47.464;18.976;2023-08-31T01:47:43;99121.19;;;20.20;62.14
65666;BME280;52365;47.464;18.976;2023-08-31T01:48:19;99118.47;;;20.20;62.04
65666;BME280;52365;47.464;18.976;2023-08-31T01:48:55;99119.91;;;20.21;61.86
65666;BME280;52365;47.464;18.976;2023-08-31T01:49:37;99125.56;;;20.44;61.74
65666;BME280;52365;47.464;18.976;2023-08-31T01:50:14;99123.09;;;20.82;60.29
65666;BME280;52365;47.464;18.976;2023-08-31T01:50:50;99132.91;;;20.49;60.13
65666;BME280;52365;47.464;18.976;2023-08-31T01:51:26;99122.19;;;20.58;60.12
65666;BME280;52365;47.464;18.976;2023-08-31T01:52:02;99125.63;;;20.51;60.21
65666;BME280;52365;47.464;18.976;2023-08-31T01:52:38;99122.50;;;20.26;60.45
65666;BME280;52365;47.464;18.976;2023-08-31T01:53:14;99134.19;;;18.90;64.43
65666;BME280;52365;47.464;18.976;2023-08-31T01:53:50;99122.66;;;18.25;67.30
65666;BME280;52365;47.464;18.976;2023-08-31T01:54:27;99130.22;;;18.19;68.93
65666;BME280;52365;47.464;18.976;2023-08-31T01:55:04;99129.78;;;19.48;66.15
65666;BME280;52365;47.464;18.976;2023-08-31T01:55:41;99134.31;;;20.00;63.60
65666;BME280;52365;47.464;18.976;2023-08-31T01:56:17;99128.72;;;20.27;62.23
65666;BME280;52365;47.464;18.976;2023-08-31T01:56:53;99119.13;;;20.12;62.06
65666;BME280;52365;47.464;18.976;2023-08-31T01:57:29;99130.13;;;20.20;62.02
65666;BME280;52365;47.464;18.976;2023-08-31T01:58:05;99126.25;;;19.95;62.26
65666;BME280;52365;47.464;18.976;2023-08-31T01:58:41;99122.31;;;20.24;61.82
65666;BME280;52365;47.464;18.976;2023-08-31T01:59:17;99123.84;;;20.12;61.93
65666;BME280;52365;47.464;18.976;2023-08-31T01:59:53;99119.97;;;20.28;61.82
65666;BME280;52365;47.464;18.976;2023-08-31T02:00:30;99119.69;;;20.40;61.34
65666;BME280;52365;47.464;18.976;2023-08-31T02:01:10;99120.97;;;20.67;60.47
65666;BME280;52365;47.464;18.976;2023-08-31T02:01:46;99123.31;;;20.34;61.35
65666;BME280;52365;47.464;18.976;2023-08-31T02:02:22;99129.12;;;20.10;61.74
65666;BME280;52365;47.464;18.976;2023-08-31T02:02:58;99120.00;;;20.36;61.53
65666;BME280;52365;47.464;18.976;2023-08-31T02:03:34;99128.34;;;20.72;60.50
65666;BME280;52365;47.464;18.976;2023-08-31T02:04:10;99126.16;;;20.78;59.94
65666;BME280;52365;47.464;18.976;2023-08-31T02:04:46;99127.94;;;20.68;59.95
65666;BME280;52365;47.464;18.976;2023-08-31T02:05:23;99128.91;;;20.78;59.85
65666;BME280;52365;47.464;18.976;2023-08-31T02:05:59;99128.34;;;20.72;59.74
65666;BME280;52365;47.464;18.976;2023-08-31T02:06:35;99120.56;;;20.34;60.69
65666;BME280;52365;47.464;18.976;2023-08-31T02:07:11;99119.47;;;20.58;60.45
65666;BME280;52365;47.464;18.976;2023-08-31T02:07:47;99120.00;;;20.57;60.34
65666;BME280;52365;47.464;18.976;2023-08-31T02:08:23;99123.31;;;20.92;59.44
65666;BME280;52365;47.464;18.976;2023-08-31T02:08:59;99121.25;;;20.84;59.20
65666;BME280;52365;47.464;18.976;2023-08-31T02:09:35;99130.97;;;20.85;59.12
65666;BME280;52365;47.464;18.976;2023-08-31T02:10:11;99127.72;;;20.95;58.97
65666;BME280;52365;47.464;18.976;2023-08-31T02:10:47;99123.41;;;21.15;58.48
65666;BME280;52365;47.464;18.976;2023-08-31T02:11:24;99119.34;;;20.64;59.14
65666;BME280;52365;47.464;18.976;2023-08-31T02:12:00;99115.75;;;20.48;59.74
65666;BME280;52365;47.464;18.976;2023-08-31T02:12:36;99125.03;;;20.74;59.49
65666;BME280;52365;47.464;18.976;2023-08-31T02:13:14;99118.91;;;20.88;58.97
65666;BME280;52365;47.464;18.976;2023-08-31T02:13:51;99114.94;;;20.97;58.45
65666;BME280;52365;47.464;18.976;2023-08-31T02:14:29;99125.75;;;21.03;58.24
65666;BME280;52365;47.464;18.976;2023-08-31T02:15:06;99120.59;;;20.63;59.22
65666;BME280;52365;47.464;18.976;2023-08-31T02:15:42;99121.47;;;20.58;59.48
65666;BME280;52365;47.464;18.976;2023-08-31T02:16:19;99127.66;;;19.54;61.59
65666;BME280;52365;47.464;18.976;2023-08-31T02:16:55;99127.56;;;18.99;64.21
65666;BME280;52365;47.464;18.976;2023-08-31T02:17:31;99128.25;;;18.33;66.30
65666;BME280;52365;47.464;18.976;2023-08-31T02:18:08;99119.44;;;18.27;67.51
65666;BME280;52365;47.464;18.976;2023-08-31T02:18:44;99127.47;;;18.19;68.00
65666;BME280;52365;47.464;18.976;2023-08-31T02:19:20;99133.19;;;18.61;67.21
65666;BME280;52365;47.464;18.976;2023-08-31T02:19:56;99130.44;;;18.34;67.48
65666;BME280;52365;47.464;18.976;2023-08-31T02:20:33;99122.25;;;18.34;67.74
65666;BME280;52365;47.464;18.976;2023-08-31T02:21:10;99123.72;;;18.22;68.07
65666;BME280;52365;47.464;18.976;2023-08-31T02:21:46;99131.56;;;18.26;68.39
65666;BME280;52365;47.464;18.976;2023-08-31T02:22:22;99127.72;;;18.34;67.84
65666;BME280;52365;47.464;18.976;2023-08-31T02:22:58;99126.00;;;18.05;68.37
65666;BME280;52365;47.464;18.976;2023-08-31T02:23:34;99122.47;;;17.72;69.79
65666;BME280;52365;47.464;18.976;2023-08-31T02:24:10;99127.38;;;18.83;68.17
65666;BME280;52365;47.464;18.976;2023-08-31T02:24:46;99123.16;;;18.69;66.34
65666;BME280;52365;47.464;18.976;2023-08-31T02:25:22;99132.25;;;18.45;67.37
65666;BME280;52365;47.464;18.976;2023-08-31T02:25:58;99128.84;;;18.71;66.17
65666;BME280;52365;47.464;18.976;2023-08-31T02:26:37;99132.09;;;17.79;68.90
65666;BME280;52365;47.464;18.976;2023-08-31T02:27:13;99131.91;;;18.22;68.77
65666;BME280;52365;47.464;18.976;2023-08-31T02:27:49;99131.69;;;18.20;68.71
65666;BME280;52365;47.464;18.976;2023-08-31T02:28:25;99133.28;;;18.29;68.33
65666;BME280;52365;47.464;18.976;2023-08-31T02:29:01;99137.19;;;18.47;67.77
65666;BME280;52365;47.464;18.976;2023-08-31T02:29:38;99132.66;;;17.72;69.72
65666;BME280;52365;47.464;18.976;2023-08-31T02:30:14;99125.37;;;17.61;70.89
65666;BME280;52365;47.464;18.976;2023-08-31T02:30:58;99137.97;;;17.83;70.58
65666;BME280;52365;47.464;18.976;2023-08-31T02:31:34;99135.38;;;17.72;70.52
65666;BME280;52365;47.464;18.976;2023-08-31T02:32:10;99137.22;;;18.73;68.48
65666;BME280;52365;47.464;18.976;2023-08-31T02:32:47;99139.31;;;19.20;66.26
65666;BME280;52365;47.464;18.976;2023-08-31T02:33:23;99137.09;;;19.66;64.47
65666;BME280;52365;47.464;18.976;2023-08-31T02:33:59;99137.72;;;19.72;63.41
65666;BME280;52365;47.464;18.976;2023-08-31T02:34:35;99138.94;;;19.84;63.00
65666;BME280;52365;47.464;18.976;2023-08-31T02:35:11;99141.75;;;19.58;63.49
65666;BME280;52365;47.464;18.976;2023-08-31T02:35:48;99144.94;;;20.04;62.54
65666;BME280;52365;47.464;18.976;2023-08-31T02:36:24;99135.66;;;19.86;62.61
65666;BME280;52365;47.464;18.976;2023-08-31T02:37:00;99130.31;;;20.01;62.31
65666;BME280;52365;47.464;18.976;2023-08-31T02:37:36;99132.94;;;20.07;62.32
65666;BME280;52365;47.464;18.976;2023-08-31T02:38:12;99145.09;;;19.98;62.12
65666;BME280;52365;47.464;18.976;2023-08-31T02:38:48;99137.88;;;20.08;61.96
65666;BME280;52365;47.464;18.976;2023-08-31T02:39:26;99135.19;;;20.16;61.76
65666;BME280;52365;47.464;18.976;2023-08-31T02:40:02;99143.34;;;20.08;61.75
65666;BME280;52365;47.464;18.976;2023-08-31T02:40:39;99137.84;;;19.87;62.13
65666;BME280;52365;47.464;18.976;2023-08-31T02:41:15;99135.06;;;20.01;62.16
65666;BME280;52365;47.464;18.976;2023-08-31T02:41:51;99138.19;;;20.26;61.24
65666;BME280;52365;47.464;18.976;2023-08-31T02:42:27;99139.94;;;19.13;63.55
65666;BME280;52365;47.464;18.976;2023-08-31T02:43:03;99139.59;;;18.50;66.05
65666;BME280;52365;47.464;18.976;2023-08-31T02:43:39;99139.87;;;17.88;68.10
65666;BME280;52365;47.464;18.976;2023-08-31T02:44:17;99138.94;;;17.48;69.95
65666;BME280;52365;47.464;18.976;2023-08-31T02:44:53;99148.56;;;19.04;67.20
65666;BME280;52365;47.464;18.976;2023-08-31T02:45:29;99146.03;;;19.53;64.28
65666;BME280;52365;47.464;18.976;2023-08-31T02:46:05;99144.03;;;19.20;64.68
65666;BME280;52365;47.464;18.976;2023-08-31T02:46:41;99144.97;;;19.22;64.36
65666;BME280;52365;47.464;18.976;2023-08-31T02:47:17;99152.47;;;19.56;63.53
65666;BME280;52365;47.464;18.976;2023-08-31T02:47:53;99144.44;;;19.24;64.07
65666;BME280;52365;47.464;18.976;2023-08-31T02:48:32;99148.59;;;19.85;62.92
65666;BME280;52365;47.464;18.976;2023-08-31T02:49:08;99147.87;;;19.85;61.53
65666;BME280;52365;47.464;18.976;2023-08-31T02:49:44;99146.84;;;19.75;61.25
65666;BME280;52365;47.464;18.976;2023-08-31T02:50:20;99150.62;;;18.45;64.76
65666;BME280;52365;47.464;18.976;2023-08-31T02:50:57;99147.91;;;17.80;68.01
65666;BME280;52365;47.464;18.976;2023-08-31T02:51:34;99149.84;;;18.76;67.10
65666;BME280;52365;47.464;18.976;2023-08-31T02:52:10;99158.97;;;19.19;65.33
65666;BME280;52365;47.464;18.976;2023-08-31T02:52:46;99153.19;;;19.56;63.97
65666;BME280;52365;47.464;18.976;2023-08-31T02:53:22;99150.44;;;18.69;65.49
65666;BME280;52365;47.464;18.976;2023-08-31T02:53:58;99152.75;;;18.92;66.14
65666;BME280;52365;47.464;18.976;2023-08-31T02:54:34;99144.62;;;19.26;64.93
65666;BME280;52365;47.464;18.976;2023-08-31T02:55:10;99156.38;;;19.47;64.02
65666;BME280;52365;47.464;18.976;2023-08-31T02:55:46;99146.59;;;19.52;63.61
65666;BME280;52365;47.464;18.976;2023-08-31T02:56:23;99141.06;;;19.78;62.83
65666;BME280;52365;47.464;18.976;2023-08-31T02:56:59;99148.22;;;19.34;63.79
65666;BME280;52365;47.464;18.976;2023-08-31T02:57:36;99148.22;;;19.34;63.90
65666;BME280;52365;47.464;18.976;2023-08-31T02:58:12;99143.91;;;19.73;63.20
65666;BME280;52365;47.464;18.976;2023-08-31T02:58:48;99148.03;;;19.66;63.02
65666;BME280;52365;47.464;18.976;2023-08-31T02:59:24;99142.50;;;19.79;62.47
65666;BME280;52365;47.464;18.976;2023-08-31T03:00:00;99145.56;;;19.42;63.03
65666;BME280;52365;47.464;18.976;2023-08-31T03:00:36;99144.56;;;19.66;63.33
65666;BME280;52365;47.464;18.976;2023-08-31T03:01:15;99141.38;;;18.48;65.37
65666;BME280;52365;47.464;18.976;2023-08-31T03:01:51;99151.25;;;18.51;67.23
65666;BME280;52365;47.464;18.976;2023-08-31T03:02:27;99136.88;;;18.63;66.67
65666;BME280;52365;47.464;18.976;2023-08-31T03:03:03;99144.06;;;18.21;67.74
65666;BME280;52365;47.464;18.976;2023-08-31T03:03:41;99144.09;;;18.48;67.63
65666;BME280;52365;47.464;18.976;2023-08-31T03:04:17;99137.25;;;18.28;67.95
65666;BME280;52365;47.464;18.976;2023-08-31T03:04:53;99146.22;;;18.68;67.08
65666;BME280;52365;47.464;18.976;2023-08-31T03:05:30;99134.72;;;19.02;65.73
65666;BME280;52365;47.464;18.976;2023-08-31T03:06:07;99139.19;;;19.12;65.19
65666;BME280;52365;47.464;18.976;2023-08-31T03:06:44;99146.66;;;19.25;64.65
65666;BME280;52365;47.464;18.976;2023-08-31T03:07:21;99149.13;;;19.50;63.99
65666;BME280;52365;47.464;18.976;2023-08-31T03:07:57;99140.44;;;19.25;64.07
65666;BME280;52365;47.464;18.976;2023-08-31T03:08:34;99135.19;;;19.27;64.58
65666;BME280;52365;47.464;18.976;2023-08-31T03:09:10;99144.16;;;18.87;65.13
65666;BME280;52365;47.464;18.976;2023-08-31T03:09:49;99144.66;;;18.59;67.02
65666;BME280;52365;47.464;18.976;2023-08-31T03:10:26;99138.16;;;19.16;65.45
65666;BME280;52365;47.464;18.976;2023-08-31T03:11:05;99139.47;;;19.35;64.16
65666;BME280;52365;47.464;18.976;2023-08-31T03:11:41;99137.19;;;19.26;64.32
65666;BME280;52365;47.464;18.976;2023-08-31T03:12:17;99141.16;;;19.38;63.97
65666;BME280;52365;47.464;18.976;2023-08-31T03:12:53;99144.88;;;19.62;63.30
65666;BME280;52365;47.464;18.976;2023-08-31T03:13:30;99146.38;;;19.84;62.72
65666;BME280;52365;47.464;18.976;2023-08-31T03:14:07;99144.47;;;19.58;62.78
65666;BME280;52365;47.464;18.976;2023-08-31T03:14:45;99140.25;;;19.70;62.61
65666;BME280;52365;47.464;18.976;2023-08-31T03:15:21;99144.00;;;19.80;62.33
65666;BME280;52365;47.464;18.976;2023-08-31T03:15:57;99136.06;;;19.08;63.93
65666;BME280;52365;47.464;18.976;2023-08-31T03:16:33;99138.63;;;19.41;63.86
65666;BME280;52365;47.464;18.976;2023-08-31T03:17:09;99143.84;;;19.65;62.88
65666;BME280;52365;47.464;18.976;2023-08-31T03:17:45;99137.72;;;19.72;62.47
65666;BME280;52365;47.464;18.976;2023-08-31T03:18:21;99140.47;;;19.59;62.82
65666;BME280;52365;47.464;18.976;2023-08-31T03:18:57;99145.22;;;19.58;62.85
65666;BME280;52365;47.464;18.976;2023-08-31T03:19:33;99139.28;;;19.33;63.21
65666;BME280;52365;47.464;18.976;2023-08-31T03:20:10;99140.53;;;19.32;63.14
65666;BME280;52365;47.464;18.976;2023-08-31T03:20:46;99135.25;;;18.15;66.13
65666;BME280;52365;47.464;18.976;2023-08-31T03:21:22;99138.75;;;17.59;69.02
65666;BME280;52365;47.464;18.976;2023-08-31T03:21:58;99137.38;;;17.52;70.13
65666;BME280;52365;47.464;18.976;2023-08-31T03:22:34;99142.53;;;17.75;69.94